METAR Analyzer

一覧表示

Hello, Guest. (Login)

CYYZ/YYZ  -  トロント・ピアソン

観測日時
2021-05-15 16:00 (UTC) (83分前)
気温
21
露点
2
湿数
19
相対湿度
28.4%
QNH
1024.0hPa
推定現地気圧
1003.2hPa
推定海面気圧
1023.5hPa
体感温度
13.2
(無風時)
19.4
HI
19.9
気温前日比
+1
体感温度前日比
-0.9
HI前日比
+1.2
水平視程
>15SM
鉛直視程
データなし
雲底高度
24000ft AGL
V/I
VMC (VFR)
RVR
No RVR data
卓越風
7kt from 150° (130° ~ 190°)
ガスト
No gust
降水
報告なし
その他の天気
報告なし
散在する(4/8) 層積雲 @ 6000ft AGL / 散在する(1/8) 高層雲 @ 18000ft AGL / 隙間のある(1/8) 巻雲 @ 24000ft AGL

CYYZ 151600Z 15007KT 130V190 15SM SCT060 SCT180 BKN240 21/02 A3024 RMK SC4AS1CI1 AS TR SLP244 DENSITY ALT 1100FT

CYOW/YOW  -  オタワ・マクドナルド・カルティエ

観測日時
2021-05-15 17:00 (UTC) (23分前)
気温
22
露点
-2
湿数
24
相対湿度
20%
QNH
1021.3hPa
推定現地気圧
1007.5hPa
推定海面気圧
1021.0hPa
体感温度
14.6
(無風時)
19.6
HI
20.8
気温前日比
±0
体感温度前日比
+1.9
HI前日比
±0
水平視程
>15SM
鉛直視程
データなし
雲底高度
24000ft AGL
V/I
VMC (VFR)
RVR
No RVR data
卓越風
5kt from 180° (110° ~ 280°)
ガスト
No gust
降水
報告なし
その他の天気
報告なし
散在する(3/8) 積雲 @ 7000ft AGL / 隙間のある(3/8) 巻雲 @ 24000ft AGL

CYOW 151700Z 18005KT 110V280 15SM SCT070 BKN240 22/M02 A3016 RMK CU3CI3 SLP216 DENSITY ALT 1100FT

CYUL/YUL  -  モントリオール・ピエール・エリオット・トルドー

観測日時
2021-05-15 17:00 (UTC) (23分前)
気温
21
露点
6
湿数
15
相対湿度
37.6%
QNH
1020.7hPa
推定現地気圧
1016.4hPa
推定海面気圧
1020.7hPa
体感温度
12.5
(無風時)
19.8
HI
20.1
気温前日比
-3
体感温度前日比
-2.4
HI前日比
-3
水平視程
>30SM
鉛直視程
データなし
雲底高度
No dense clouds
V/I
VMC (VFR)
RVR
No RVR data
卓越風
11kt from 190°
ガスト
No gust
降水
報告なし
その他の天気
報告なし
少しの(1/8) 層積雲 @ 4500ft AGL / 少しの(1/8) 高積雲 @ 18000ft AGL / 散在する(3/8) 巻雲 @ 25000ft AGL

CYUL 151700Z 19011KT 30SM FEW045 FEW180 SCT250 21/06 A3014 RMK SC1AC1CI3 SC TR AC TR SLP208 DENSITY ALT 700FT

CYVR/YVR  -  バンクーバー

観測日時
2021-05-15 17:00 (UTC) (23分前)
気温
15
露点
11
湿数
4
相対湿度
77%
QNH
1020.7hPa
推定現地気圧
1020.2hPa
推定海面気圧
1020.7hPa
体感温度
4.8
(無風時)
16.7
HI
14.6
気温前日比
±0
体感温度前日比
-0.1
HI前日比
-0.1
水平視程
>25SM
鉛直視程
データなし
雲底高度
No dense clouds
V/I
VMC (VFR)
RVR
No RVR data
卓越風
13kt from 290°
ガスト
No gust
降水
報告なし
その他の天気
報告なし
少しの(1/8) 高積雲 @ 18000ft AGL / 少しの(2/8) 巻雲 @ 21000ft AGL / 散在する(2/8) 巻層雲 @ 24000ft AGL

CYVR 151700Z 29013KT 25SM FEW180 FEW210 SCT240 15/11 A3014 RMK AC1CI2CS2 AC TR SLP206

KJFK/JFK  -  ジョン・F・ケネディ

観測日時
2021-05-15 16:51 (UTC) (32分前)
気温
20.6
露点
3.9
湿数
16.7
相対湿度
33.3%
QNH
1024.7hPa
推定現地気圧
1024.2hPa
推定海面気圧
1024.7hPa
体感温度
12.2
(無風時)
19.4
HI
19.6
気温前日比
-1.1
体感温度前日比
-0.9
HI前日比
-1.1
水平視程
>10SM
鉛直視程
データなし
雲底高度
No dense clouds
V/I
VMC (VFR)
RVR
No RVR data
卓越風
10kt from 180°
ガスト
No gust
降水
報告なし
その他の天気
報告なし
散在する雲 @ 8000ft AGL / 散在する雲 @ 15000ft AGL

KJFK 151651Z 18010KT 10SM SCT080 SCT150 21/04 A3026 RMK AO2 SLP245 T02060039

KLGA/LGA  -  ラガーディア

観測日時
2021-05-15 16:51 (UTC) (32分前)
気温
24.4
露点
0.6
湿数
23.8
相対湿度
20.9%
QNH
1023.7hPa
推定現地気圧
1023.0hPa
推定海面気圧
1023.7hPa
体感温度
16.9
(無風時)
21.1
HI
23.4
気温前日比
+1.6
体感温度前日比
+1.5
HI前日比
+1.8
水平視程
>10SM
鉛直視程
データなし
雲底高度
No dense clouds
V/I
VMC (VFR)
RVR
No RVR data
卓越風
5kt from 40°
ガスト
No gust
降水
報告なし
その他の天気
報告なし
少しの雲 @ 8500ft AGL / 少しの雲 @ 14000ft AGL / 散在する雲 @ 25000ft AGL

KLGA 151651Z 04005KT 10SM FEW085 FEW140 SCT250 24/01 A3023 RMK AO2 SLP235 T02440006 $

KEWR/EWR  -  ニューアーク・リバティー

観測日時
2021-05-15 16:51 (UTC) (32分前)
気温
25.6
露点
-1.1
湿数
26.7
相対湿度
17.2%
QNH
1023.7hPa
推定現地気圧
1023.1hPa
推定海面気圧
1023.7hPa
体感温度
17.3
(無風時)
21.5
HI
24.7
気温前日比
+1.7
体感温度前日比
+1.6
HI前日比
+1.9
水平視程
>10SM
鉛直視程
データなし
雲底高度
No dense clouds
V/I
VMC (VFR)
RVR
No RVR data
卓越風
7kt from 100°
ガスト
No gust
降水
報告なし
その他の天気
報告なし
散在する雲 @ 11000ft AGL / 散在する雲 @ 25000ft AGL

KEWR 151651Z 10007KT 10SM SCT110 SCT250 26/M01 A3023 RMK AO2 SLP235 T02561011

KIAD/IAD  -  ワシントン・ダレス

観測日時
2021-05-15 16:52 (UTC) (31分前)
気温
23.9
露点
-0.6
湿数
24.5
相対湿度
19.7%
QNH
1024.7hPa
推定現地気圧
1013.2hPa
推定海面気圧
1024.3hPa
体感温度
17.2
(無風時)
20.7
HI
22.9
気温前日比
+3.3
体感温度前日比
-1.9
HI前日比
+3.5
水平視程
>10SM
鉛直視程
データなし
雲底高度
No dense clouds
V/I
VMC (VFR)
RVR
No RVR data
卓越風
3kt from VRB
ガスト
No gust
降水
報告なし
その他の天気
報告なし
散在する雲 @ 5000ft AGL / 散在する雲 @ 8500ft AGL

KIAD 151652Z VRB03KT 10SM SCT050 SCT085 24/M01 A3026 RMK AO2 SLP246 T02391006 $

KDTW/DTW  -  デトロイト・メトロポリタン・ウェイン・カウンティ

観測日時
2021-05-15 15:53 (UTC) (90分前)
気温
21.7
露点
1.1
湿数
20.6
相対湿度
25.5%
QNH
1025.1hPa
推定現地気圧
1001.4hPa
推定海面気圧
1024.5hPa
体感温度
15.6
(無風時)
19.7
HI
20.6
気温前日比
+2.3
体感温度前日比
+2.7
HI前日比
+2.6
水平視程
>10SM
鉛直視程
データなし
雲底高度
No dense clouds
V/I
VMC (VFR)
RVR
No RVR data
卓越風
3kt from VRB
ガスト
No gust
降水
報告なし
その他の天気
報告なし
少しの雲 @ 5000ft AGL / 散在する雲 @ 25000ft AGL

KDTW 151553Z VRB03KT 10SM FEW050 SCT250 22/01 A3027 RMK AO2 SLP249 T02170011

KDET/DET  -  コールマン・A・ヤング

観測日時
2021-05-15 16:53 (UTC) (30分前)
気温
21.1
露点
-0.6
湿数
21.7
相対湿度
23.4%
QNH
1024.4hPa
推定現地気圧
1001.5hPa
推定海面気圧
1023.9hPa
体感温度
13.5
(無風時)
19.2
HI
19.9
気温前日比
+1.7
体感温度前日比
-4.7
HI前日比
+1.9
水平視程
>10SM
鉛直視程
データなし
雲底高度
10000ft AGL
V/I
VMC (VFR)
RVR
No RVR data
卓越風
6kt from 240°
ガスト
No gust
降水
報告なし
その他の天気
報告なし
隙間のある雲 @ 10000ft AGL / 隙間のある雲 @ 12000ft AGL

KDET 151653Z 24006KT 10SM BKN100 BKN120 21/M01 A3025 RMK AO2 SLP241 T02111006

KMCO/MCO  -  オーランド

観測日時
2021-05-15 16:53 (UTC) (30分前)
気温
27.2
露点
12.8
湿数
14.4
相対湿度
41%
QNH
1021.3hPa
推定現地気圧
1017.8hPa
推定海面気圧
1021.2hPa
体感温度
21
(無風時)
24.1
HI
27.1
気温前日比
-1.1
体感温度前日比
-0.2
HI前日比
-1.8
水平視程
>10SM
鉛直視程
データなし
雲底高度
No dense clouds
V/I
VMC (VFR)
RVR
No RVR data
卓越風
4kt from VRB
ガスト
15kt
降水
報告なし
その他の天気
報告なし
散在する雲 @ 6000ft AGL / 散在する雲 @ 25000ft AGL

KMCO 151653Z VRB04G15KT 10SM SCT060 SCT250 27/13 A3016 RMK AO2 SLP212 T02720128

KMIA/MIA  -  マイアミ

観測日時
2021-05-15 16:53 (UTC) (30分前)
気温
28.9
露点
20
湿数
8.9
相対湿度
58.7%
QNH
1019.0hPa
推定現地気圧
1018.6hPa
推定海面気圧
1018.9hPa
体感温度
22.5
(無風時)
26.6
HI
30.7
気温前日比
+0.6
体感温度前日比
-1.7
HI前日比
-0.2
水平視程
>10SM
鉛直視程
データなし
雲底高度
4000ft AGL
V/I
VMC (VFR)
RVR
No RVR data
卓越風
12kt from 40°
ガスト
18kt
降水
報告なし
その他の天気
報告なし
散在する雲 @ 3400ft AGL / 隙間のある雲 @ 4000ft AGL / 隙間のある雲 @ 8000ft AGL / 隙間のある雲 @ 25000ft AGL

KMIA 151653Z 04012G18KT 10SM SCT034 BKN040 BKN080 BKN250 29/20 A3009 RMK AO2 SLP190 T02890200

KFLL/FLL  -  フォートローダーデール・ハリウッド

観測日時
2021-05-15 16:53 (UTC) (30分前)
気温
28.3
露点
21.1
湿数
7.2
相対湿度
65%
QNH
1019.0hPa
推定現地気圧
1016.6hPa
推定海面気圧
1018.9hPa
体感温度
21.9
(無風時)
26.6
HI
30.6
気温前日比
+1.1
体感温度前日比
-0.1
HI前日比
+0.7
水平視程
>10SM
鉛直視程
データなし
雲底高度
7000ft AGL
V/I
VMC (VFR)
RVR
No RVR data
卓越風
15kt from 50°
ガスト
20kt
降水
報告なし
その他の天気
報告なし
散在する雲 @ 3100ft AGL / 散在する雲 @ 6000ft AGL / 隙間のある雲 @ 7000ft AGL

KFLL 151653Z 05015G20KT 10SM SCT031 SCT060 BKN070 28/21 A3009 RMK AO2 SLP190 T02830211

KTPA/TPA  -  タンパ

観測日時
2021-05-15 16:53 (UTC) (30分前)
気温
29.4
露点
13.9
湿数
15.5
相対湿度
38.7%
QNH
1021.3hPa
推定現地気圧
1020.3hPa
推定海面気圧
1021.2hPa
体感温度
22.8
(無風時)
25.4
HI
28.9
気温前日比
+0.5
体感温度前日比
+0.5
HI前日比
-0.2
水平視程
>10SM
鉛直視程
データなし
雲底高度
No dense clouds
V/I
VMC (VFR)
RVR
No RVR data
卓越風
5kt from VRB
ガスト
No gust
降水
報告なし
その他の天気
報告なし
少しの雲 @ 6500ft AGL / 少しの雲 @ 25000ft AGL

KTPA 151653Z VRB05KT 10SM FEW065 FEW250 29/14 A3016 RMK AO2 SLP212 T02940139

KORD/ORD  -  シカゴ・オヘア